sensor_id;sensor_type;location;lat;lon;timestamp;P1;durP1;ratioP1;P2;durP2;ratioP2
12776;SDS011;6452;41.572;23.732;2023-07-13T00:00:23;5.05;;;4.68;;
12776;SDS011;6452;41.572;23.732;2023-07-13T00:02:50;4.82;;;4.47;;
12776;SDS011;6452;41.572;23.732;2023-07-13T00:05:19;5.47;;;4.97;;
12776;SDS011;6452;41.572;23.732;2023-07-13T00:07:45;6.05;;;4.00;;
12776;SDS011;6452;41.572;23.732;2023-07-13T00:10:11;4.47;;;4.18;;
12776;SDS011;6452;41.572;23.732;2023-07-13T00:12:37;4.55;;;4.25;;
12776;SDS011;6452;41.572;23.732;2023-07-13T00:15:09;4.20;;;3.80;;
12776;SDS011;6452;41.572;23.732;2023-07-13T00:17:50;4.85;;;4.10;;
12776;SDS011;6452;41.572;23.732;2023-07-13T00:20:16;3.97;;;3.67;;
12776;SDS011;6452;41.572;23.732;2023-07-13T00:22:42;4.90;;;4.50;;
12776;SDS011;6452;41.572;23.732;2023-07-13T00:25:10;3.60;;;3.40;;
12776;SDS011;6452;41.572;23.732;2023-07-13T00:27:36;4.05;;;3.75;;
12776;SDS011;6452;41.572;23.732;2023-07-13T00:30:02;4.32;;;3.95;;
12776;SDS011;6452;41.572;23.732;2023-07-13T00:32:28;4.18;;;3.65;;
12776;SDS011;6452;41.572;23.732;2023-07-13T00:34:55;4.22;;;3.90;;
12776;SDS011;6452;41.572;23.732;2023-07-13T00:37:22;4.45;;;3.92;;
12776;SDS011;6452;41.572;23.732;2023-07-13T00:39:48;4.05;;;3.75;;
12776;SDS011;6452;41.572;23.732;2023-07-13T00:42:14;4.30;;;3.90;;
12776;SDS011;6452;41.572;23.732;2023-07-13T00:44:40;4.40;;;4.00;;
12776;SDS011;6452;41.572;23.732;2023-07-13T00:47:06;4.43;;;4.05;;
12776;SDS011;6452;41.572;23.732;2023-07-13T00:49:33;4.80;;;4.43;;
12776;SDS011;6452;41.572;23.732;2023-07-13T00:52:07;4.15;;;3.85;;
12776;SDS011;6452;41.572;23.732;2023-07-13T00:54:49;4.38;;;4.07;;
12776;SDS011;6452;41.572;23.732;2023-07-13T00:57:16;4.53;;;4.10;;
12776;SDS011;6452;41.572;23.732;2023-07-13T00:59:44;4.63;;;4.18;;
12776;SDS011;6452;41.572;23.732;2023-07-13T01:02:11;4.22;;;3.92;;
12776;SDS011;6452;41.572;23.732;2023-07-13T01:04:37;4.45;;;4.05;;
12776;SDS011;6452;41.572;23.732;2023-07-13T01:07:04;4.20;;;3.85;;
12776;SDS011;6452;41.572;23.732;2023-07-13T01:09:30;4.47;;;4.18;;
12776;SDS011;6452;41.572;23.732;2023-07-13T01:11:56;4.18;;;3.78;;
12776;SDS011;6452;41.572;23.732;2023-07-13T01:14:22;4.38;;;4.07;;
12776;SDS011;6452;41.572;23.732;2023-07-13T01:16:49;5.28;;;3.92;;
12776;SDS011;6452;41.572;23.732;2023-07-13T01:19:36;3.88;;;3.58;;
12776;SDS011;6452;41.572;23.732;2023-07-13T01:22:14;3.85;;;3.53;;
12776;SDS011;6452;41.572;23.732;2023-07-13T01:24:52;4.57;;;4.18;;
12776;SDS011;6452;41.572;23.732;2023-07-13T01:27:24;5.10;;;4.35;;
12776;SDS011;6452;41.572;23.732;2023-07-13T01:29:51;4.30;;;3.95;;
12776;SDS011;6452;41.572;23.732;2023-07-13T01:32:21;4.07;;;3.78;;
12776;SDS011;6452;41.572;23.732;2023-07-13T01:34:52;4.00;;;3.70;;
12776;SDS011;6452;41.572;23.732;2023-07-13T01:37:38;4.47;;;4.07;;
12776;SDS011;6452;41.572;23.732;2023-07-13T01:40:04;4.63;;;4.22;;
12776;SDS011;6452;41.572;23.732;2023-07-13T01:42:34;4.03;;;3.75;;
12776;SDS011;6452;41.572;23.732;2023-07-13T01:45:00;5.07;;;4.68;;
12776;SDS011;6452;41.572;23.732;2023-07-13T01:47:26;4.68;;;4.28;;
12776;SDS011;6452;41.572;23.732;2023-07-13T01:49:53;4.45;;;4.05;;
12776;SDS011;6452;41.572;23.732;2023-07-13T01:52:19;5.15;;;4.20;;
12776;SDS011;6452;41.572;23.732;2023-07-13T01:54:45;7.38;;;4.43;;
12776;SDS011;6452;41.572;23.732;2023-07-13T01:57:11;4.13;;;3.83;;
12776;SDS011;6452;41.572;23.732;2023-07-13T01:59:38;4.82;;;4.43;;
12776;SDS011;6452;41.572;23.732;2023-07-13T02:02:04;4.70;;;4.30;;
12776;SDS011;6452;41.572;23.732;2023-07-13T02:04:30;4.50;;;4.10;;
12776;SDS011;6452;41.572;23.732;2023-07-13T02:06:57;4.22;;;3.85;;
12776;SDS011;6452;41.572;23.732;2023-07-13T02:09:23;4.18;;;3.88;;
12776;SDS011;6452;41.572;23.732;2023-07-13T02:11:49;4.35;;;4.05;;
12776;SDS011;6452;41.572;23.732;2023-07-13T02:14:15;4.57;;;4.18;;
12776;SDS011;6452;41.572;23.732;2023-07-13T02:16:41;4.30;;;4.00;;
12776;SDS011;6452;41.572;23.732;2023-07-13T02:19:07;4.03;;;3.78;;
12776;SDS011;6452;41.572;23.732;2023-07-13T02:21:33;4.65;;;4.03;;
12776;SDS011;6452;41.572;23.732;2023-07-13T02:23:59;4.15;;;3.80;;
12776;SDS011;6452;41.572;23.732;2023-07-13T02:26:25;4.20;;;3.90;;
12776;SDS011;6452;41.572;23.732;2023-07-13T02:28:51;4.55;;;4.25;;
12776;SDS011;6452;41.572;23.732;2023-07-13T02:31:17;5.40;;;4.90;;
12776;SDS011;6452;41.572;23.732;2023-07-13T02:33:43;4.30;;;3.90;;
12776;SDS011;6452;41.572;23.732;2023-07-13T02:36:09;4.80;;;4.40;;
12776;SDS011;6452;41.572;23.732;2023-07-13T02:38:36;4.95;;;4.07;;
12776;SDS011;6452;41.572;23.732;2023-07-13T02:41:06;3.95;;;3.55;;
12776;SDS011;6452;41.572;23.732;2023-07-13T02:43:32;5.07;;;4.55;;
12776;SDS011;6452;41.572;23.732;2023-07-13T02:45:58;4.47;;;4.07;;
12776;SDS011;6452;41.572;23.732;2023-07-13T02:48:29;4.38;;;3.97;;
12776;SDS011;6452;41.572;23.732;2023-07-13T02:50:55;4.10;;;3.70;;
12776;SDS011;6452;41.572;23.732;2023-07-13T02:53:21;4.35;;;3.95;;
12776;SDS011;6452;41.572;23.732;2023-07-13T02:55:48;3.95;;;3.65;;
12776;SDS011;6452;41.572;23.732;2023-07-13T02:58:13;4.60;;;4.20;;
12776;SDS011;6452;41.572;23.732;2023-07-13T03:00:43;4.30;;;4.00;;
12776;SDS011;6452;41.572;23.732;2023-07-13T03:03:09;4.78;;;4.38;;
12776;SDS011;6452;41.572;23.732;2023-07-13T03:05:37;4.72;;;4.32;;
12776;SDS011;6452;41.572;23.732;2023-07-13T03:08:03;4.03;;;3.72;;
12776;SDS011;6452;41.572;23.732;2023-07-13T03:10:29;3.88;;;3.65;;
12776;SDS011;6452;41.572;23.732;2023-07-13T03:12:54;4.18;;;3.88;;
12776;SDS011;6452;41.572;23.732;2023-07-13T03:15:20;4.38;;;4.07;;
12776;SDS011;6452;41.572;23.732;2023-07-13T03:17:46;4.13;;;3.83;;
12776;SDS011;6452;41.572;23.732;2023-07-13T03:20:13;4.20;;;3.90;;
12776;SDS011;6452;41.572;23.732;2023-07-13T03:22:39;4.68;;;4.28;;
12776;SDS011;6452;41.572;23.732;2023-07-13T03:25:05;4.30;;;3.90;;
12776;SDS011;6452;41.572;23.732;2023-07-13T03:27:32;4.88;;;4.38;;
12776;SDS011;6452;41.572;23.732;2023-07-13T03:29:58;5.07;;;4.57;;
12776;SDS011;6452;41.572;23.732;2023-07-13T03:32:24;4.93;;;4.38;;
12776;SDS011;6452;41.572;23.732;2023-07-13T03:34:50;4.07;;;3.78;;
12776;SDS011;6452;41.572;23.732;2023-07-13T03:37:16;4.75;;;4.35;;
12776;SDS011;6452;41.572;23.732;2023-07-13T03:39:42;4.35;;;4.05;;
12776;SDS011;6452;41.572;23.732;2023-07-13T03:42:08;5.72;;;4.50;;
12776;SDS011;6452;41.572;23.732;2023-07-13T03:44:34;4.70;;;4.30;;
12776;SDS011;6452;41.572;23.732;2023-07-13T03:47:00;5.63;;;5.13;;
12776;SDS011;6452;41.572;23.732;2023-07-13T03:49:26;4.93;;;4.53;;
12776;SDS011;6452;41.572;23.732;2023-07-13T03:51:52;5.53;;;4.55;;
12776;SDS011;6452;41.572;23.732;2023-07-13T03:54:18;4.43;;;4.13;;
12776;SDS011;6452;41.572;23.732;2023-07-13T03:56:44;5.47;;;4.57;;
12776;SDS011;6452;41.572;23.732;2023-07-13T03:59:10;5.65;;;4.22;;
12776;SDS011;6452;41.572;23.732;2023-07-13T04:01:36;5.18;;;4.65;;
12776;SDS011;6452;41.572;23.732;2023-07-13T04:04:02;5.40;;;4.93;;
12776;SDS011;6452;41.572;23.732;2023-07-13T04:06:29;7.00;;;5.85;;
12776;SDS011;6452;41.572;23.732;2023-07-13T04:08:56;10.57;;;7.47;;
12776;SDS011;6452;41.572;23.732;2023-07-13T04:11:23;9.45;;;8.50;;
12776;SDS011;6452;41.572;23.732;2023-07-13T04:13:50;8.00;;;7.20;;
12776;SDS011;6452;41.572;23.732;2023-07-13T04:16:16;7.03;;;6.43;;
12776;SDS011;6452;41.572;23.732;2023-07-13T04:18:43;8.10;;;6.93;;
12776;SDS011;6452;41.572;23.732;2023-07-13T04:21:09;7.68;;;6.68;;
12776;SDS011;6452;41.572;23.732;2023-07-13T04:23:36;7.93;;;7.13;;
12776;SDS011;6452;41.572;23.732;2023-07-13T04:26:02;8.77;;;6.70;;
12776;SDS011;6452;41.572;23.732;2023-07-13T04:28:28;7.20;;;6.60;;
12776;SDS011;6452;41.572;23.732;2023-07-13T04:30:54;6.38;;;5.63;;
12776;SDS011;6452;41.572;23.732;2023-07-13T04:33:21;7.10;;;6.38;;
12776;SDS011;6452;41.572;23.732;2023-07-13T04:35:51;7.35;;;5.85;;
12776;SDS011;6452;41.572;23.732;2023-07-13T04:38:22;6.50;;;5.93;;
12776;SDS011;6452;41.572;23.732;2023-07-13T04:40:48;10.75;;;6.10;;
12776;SDS011;6452;41.572;23.732;2023-07-13T04:43:14;7.30;;;6.43;;
12776;SDS011;6452;41.572;23.732;2023-07-13T04:45:40;6.30;;;5.80;;
12776;SDS011;6452;41.572;23.732;2023-07-13T04:48:06;7.70;;;5.80;;
12776;SDS011;6452;41.572;23.732;2023-07-13T04:50:32;5.68;;;5.18;;
12776;SDS011;6452;41.572;23.732;2023-07-13T04:52:58;6.18;;;5.57;;
12776;SDS011;6452;41.572;23.732;2023-07-13T04:55:24;6.25;;;5.63;;
12776;SDS011;6452;41.572;23.732;2023-07-13T04:57:50;6.20;;;5.60;;
12776;SDS011;6452;41.572;23.732;2023-07-13T05:00:16;8.10;;;6.55;;
12776;SDS011;6452;41.572;23.732;2023-07-13T05:02:44;6.80;;;6.20;;
12776;SDS011;6452;41.572;23.732;2023-07-13T05:05:10;7.30;;;5.80;;
12776;SDS011;6452;41.572;23.732;2023-07-13T05:07:36;6.85;;;6.25;;
12776;SDS011;6452;41.572;23.732;2023-07-13T05:10:02;7.28;;;6.68;;
12776;SDS011;6452;41.572;23.732;2023-07-13T05:12:29;9.68;;;7.60;;
12776;SDS011;6452;41.572;23.732;2023-07-13T05:14:56;7.65;;;6.85;;
12776;SDS011;6452;41.572;23.732;2023-07-13T05:17:22;8.80;;;7.40;;
12776;SDS011;6452;41.572;23.732;2023-07-13T05:19:48;9.38;;;7.22;;
12776;SDS011;6452;41.572;23.732;2023-07-13T05:22:14;8.00;;;7.22;;
12776;SDS011;6452;41.572;23.732;2023-07-13T05:24:40;7.25;;;6.55;;
12776;SDS011;6452;41.572;23.732;2023-07-13T05:27:06;7.30;;;6.60;;
12776;SDS011;6452;41.572;23.732;2023-07-13T05:29:33;8.25;;;7.35;;
12776;SDS011;6452;41.572;23.732;2023-07-13T05:31:58;7.45;;;6.75;;
12776;SDS011;6452;41.572;23.732;2023-07-13T05:34:24;8.27;;;6.53;;
12776;SDS011;6452;41.572;23.732;2023-07-13T05:36:52;9.00;;;7.03;;
12776;SDS011;6452;41.572;23.732;2023-07-13T05:39:18;7.50;;;6.80;;
12776;SDS011;6452;41.572;23.732;2023-07-13T05:41:44;9.23;;;6.80;;
12776;SDS011;6452;41.572;23.732;2023-07-13T05:44:10;8.57;;;7.03;;
12776;SDS011;6452;41.572;23.732;2023-07-13T05:46:36;7.15;;;6.45;;
12776;SDS011;6452;41.572;23.732;2023-07-13T05:49:02;8.45;;;6.90;;
12776;SDS011;6452;41.572;23.732;2023-07-13T05:51:28;8.85;;;7.03;;
12776;SDS011;6452;41.572;23.732;2023-07-13T05:53:55;8.10;;;7.30;;
12776;SDS011;6452;41.572;23.732;2023-07-13T05:56:21;7.63;;;6.93;;
12776;SDS011;6452;41.572;23.732;2023-07-13T05:58:47;8.32;;;7.50;;
12776;SDS011;6452;41.572;23.732;2023-07-13T06:01:14;9.98;;;7.50;;
12776;SDS011;6452;41.572;23.732;2023-07-13T06:03:40;8.80;;;7.70;;
12776;SDS011;6452;41.572;23.732;2023-07-13T06:06:08;9.25;;;7.38;;
12776;SDS011;6452;41.572;23.732;2023-07-13T06:08:34;7.75;;;7.07;;
12776;SDS011;6452;41.572;23.732;2023-07-13T06:11:06;9.27;;;7.65;;
12776;SDS011;6452;41.572;23.732;2023-07-13T06:13:33;7.65;;;6.75;;
12776;SDS011;6452;41.572;23.732;2023-07-13T06:15:59;8.20;;;7.50;;
12776;SDS011;6452;41.572;23.732;2023-07-13T06:18:26;9.13;;;8.13;;
12776;SDS011;6452;41.572;23.732;2023-07-13T06:20:51;10.32;;;8.13;;
12776;SDS011;6452;41.572;23.732;2023-07-13T06:23:17;9.50;;;7.82;;
12776;SDS011;6452;41.572;23.732;2023-07-13T06:25:43;9.43;;;7.78;;
12776;SDS011;6452;41.572;23.732;2023-07-13T06:28:09;9.07;;;7.13;;
12776;SDS011;6452;41.572;23.732;2023-07-13T06:30:37;8.02;;;7.22;;
12776;SDS011;6452;41.572;23.732;2023-07-13T06:33:03;8.60;;;7.70;;
12776;SDS011;6452;41.572;23.732;2023-07-13T06:35:29;9.10;;;7.53;;
12776;SDS011;6452;41.572;23.732;2023-07-13T06:37:55;7.68;;;6.90;;
12776;SDS011;6452;41.572;23.732;2023-07-13T06:40:22;8.98;;;7.07;;
12776;SDS011;6452;41.572;23.732;2023-07-13T06:42:47;8.05;;;7.35;;
12776;SDS011;6452;41.572;23.732;2023-07-13T06:45:13;9.43;;;7.85;;
12776;SDS011;6452;41.572;23.732;2023-07-13T06:47:39;8.18;;;7.47;;
12776;SDS011;6452;41.572;23.732;2023-07-13T06:50:05;7.65;;;6.95;;
12776;SDS011;6452;41.572;23.732;2023-07-13T06:52:32;7.65;;;6.90;;
12776;SDS011;6452;41.572;23.732;2023-07-13T06:54:58;9.70;;;7.78;;
12776;SDS011;6452;41.572;23.732;2023-07-13T06:57:24;7.97;;;7.18;;
12776;SDS011;6452;41.572;23.732;2023-07-13T06:59:51;8.02;;;6.95;;
12776;SDS011;6452;41.572;23.732;2023-07-13T07:02:18;8.73;;;6.78;;
12776;SDS011;6452;41.572;23.732;2023-07-13T07:04:44;7.18;;;6.55;;
12776;SDS011;6452;41.572;23.732;2023-07-13T07:07:10;8.30;;;7.50;;
12776;SDS011;6452;41.572;23.732;2023-07-13T07:09:35;10.23;;;7.32;;
12776;SDS011;6452;41.572;23.732;2023-07-13T07:12:02;7.60;;;6.78;;
12776;SDS011;6452;41.572;23.732;2023-07-13T07:14:29;6.80;;;6.20;;
12776;SDS011;6452;41.572;23.732;2023-07-13T07:16:55;8.30;;;6.28;;
12776;SDS011;6452;41.572;23.732;2023-07-13T07:19:21;7.72;;;7.00;;
12776;SDS011;6452;41.572;23.732;2023-07-13T07:21:48;6.93;;;6.32;;
12776;SDS011;6452;41.572;23.732;2023-07-13T07:24:13;7.03;;;6.40;;
12776;SDS011;6452;41.572;23.732;2023-07-13T07:26:41;7.20;;;6.35;;
12776;SDS011;6452;41.572;23.732;2023-07-13T07:29:07;7.07;;;6.47;;
12776;SDS011;6452;41.572;23.732;2023-07-13T07:31:33;7.15;;;6.53;;
12776;SDS011;6452;41.572;23.732;2023-07-13T07:34:00;7.45;;;6.78;;
12776;SDS011;6452;41.572;23.732;2023-07-13T07:36:25;6.95;;;6.35;;
12776;SDS011;6452;41.572;23.732;2023-07-13T07:38:51;6.70;;;6.18;;
12776;SDS011;6452;41.572;23.732;2023-07-13T07:41:18;6.50;;;5.90;;
12776;SDS011;6452;41.572;23.732;2023-07-13T07:43:44;7.20;;;6.50;;
12776;SDS011;6452;41.572;23.732;2023-07-13T07:46:10;6.90;;;6.38;;
12776;SDS011;6452;41.572;23.732;2023-07-13T07:48:36;6.97;;;6.28;;
12776;SDS011;6452;41.572;23.732;2023-07-13T07:51:02;7.00;;;6.40;;
12776;SDS011;6452;41.572;23.732;2023-07-13T07:53:29;7.60;;;6.78;;
12776;SDS011;6452;41.572;23.732;2023-07-13T07:55:55;7.63;;;6.93;;
12776;SDS011;6452;41.572;23.732;2023-07-13T07:58:21;7.07;;;6.38;;
12776;SDS011;6452;41.572;23.732;2023-07-13T08:00:47;7.20;;;6.60;;
12776;SDS011;6452;41.572;23.732;2023-07-13T08:03:13;7.32;;;6.50;;
12776;SDS011;6452;41.572;23.732;2023-07-13T08:05:39;6.53;;;5.95;;
12776;SDS011;6452;41.572;23.732;2023-07-13T08:08:05;6.70;;;5.80;;
12776;SDS011;6452;41.572;23.732;2023-07-13T08:10:32;6.93;;;5.97;;
12776;SDS011;6452;41.572;23.732;2023-07-13T08:13:00;6.65;;;5.60;;
12776;SDS011;6452;41.572;23.732;2023-07-13T08:15:25;6.50;;;5.68;;
12776;SDS011;6452;41.572;23.732;2023-07-13T08:17:51;6.05;;;5.55;;
12776;SDS011;6452;41.572;23.732;2023-07-13T08:20:18;5.35;;;4.95;;
12776;SDS011;6452;41.572;23.732;2023-07-13T08:22:44;5.85;;;5.45;;
12776;SDS011;6452;41.572;23.732;2023-07-13T08:25:09;6.15;;;5.55;;
12776;SDS011;6452;41.572;23.732;2023-07-13T08:27:35;6.25;;;5.65;;
12776;SDS011;6452;41.572;23.732;2023-07-13T08:30:02;6.05;;;5.47;;
12776;SDS011;6452;41.572;23.732;2023-07-13T08:32:29;6.35;;;5.75;;
12776;SDS011;6452;41.572;23.732;2023-07-13T08:34:55;6.25;;;5.70;;
12776;SDS011;6452;41.572;23.732;2023-07-13T08:37:21;6.57;;;5.65;;
12776;SDS011;6452;41.572;23.732;2023-07-13T08:39:47;5.85;;;5.25;;
12776;SDS011;6452;41.572;23.732;2023-07-13T08:45:06;6.20;;;5.75;;
12776;SDS011;6452;41.572;23.732;2023-07-13T08:47:35;6.35;;;5.75;;
12776;SDS011;6452;41.572;23.732;2023-07-13T08:50:04;5.90;;;5.33;;
12776;SDS011;6452;41.572;23.732;2023-07-13T08:52:36;5.80;;;5.13;;
12776;SDS011;6452;41.572;23.732;2023-07-13T08:55:12;4.90;;;4.60;;
12776;SDS011;6452;41.572;23.732;2023-07-13T08:57:39;4.80;;;4.43;;
12776;SDS011;6452;41.572;23.732;2023-07-13T09:00:10;5.18;;;4.72;;
12776;SDS011;6452;41.572;23.732;2023-07-13T09:02:56;5.28;;;4.88;;
12776;SDS011;6452;41.572;23.732;2023-07-13T09:05:30;5.00;;;4.38;;
12776;SDS011;6452;41.572;23.732;2023-07-13T09:10:28;4.38;;;4.13;;
12776;SDS011;6452;41.572;23.732;2023-07-13T09:15:31;4.40;;;4.10;;
12776;SDS011;6452;41.572;23.732;2023-07-13T09:17:59;4.70;;;4.30;;
12776;SDS011;6452;41.572;23.732;2023-07-13T09:21:09;4.68;;;4.35;;
12776;SDS011;6452;41.572;23.732;2023-07-13T09:23:20;4.35;;;4.05;;
12776;SDS011;6452;41.572;23.732;2023-07-13T09:25:47;4.97;;;3.90;;
12776;SDS011;6452;41.572;23.732;2023-07-13T09:28:15;4.53;;;4.10;;
12776;SDS011;6452;41.572;23.732;2023-07-13T09:30:54;4.40;;;4.03;;
12776;SDS011;6452;41.572;23.732;2023-07-13T09:33:21;4.70;;;4.30;;
12776;SDS011;6452;41.572;23.732;2023-07-13T09:35:48;3.55;;;3.35;;
12776;SDS011;6452;41.572;23.732;2023-07-13T09:38:16;3.80;;;3.55;;
12776;SDS011;6452;41.572;23.732;2023-07-13T09:40:59;4.50;;;4.20;;
12776;SDS011;6452;41.572;23.732;2023-07-13T09:43:28;4.40;;;4.10;;
12776;SDS011;6452;41.572;23.732;2023-07-13T09:45:54;4.50;;;4.15;;
12776;SDS011;6452;41.572;23.732;2023-07-13T09:48:21;4.55;;;4.25;;
12776;SDS011;6452;41.572;23.732;2023-07-13T09:50:47;4.28;;;3.97;;
12776;SDS011;6452;41.572;23.732;2023-07-13T09:53:13;5.13;;;4.60;;
12776;SDS011;6452;41.572;23.732;2023-07-13T09:55:40;4.88;;;4.38;;
12776;SDS011;6452;41.572;23.732;2023-07-13T10:00:35;4.97;;;4.57;;
12776;SDS011;6452;41.572;23.732;2023-07-13T10:03:04;4.20;;;3.90;;
12776;SDS011;6452;41.572;23.732;2023-07-13T10:05:37;5.03;;;4.35;;
12776;SDS011;6452;41.572;23.732;2023-07-13T10:08:03;4.57;;;4.28;;
12776;SDS011;6452;41.572;23.732;2023-07-13T10:10:32;3.95;;;3.75;;
12776;SDS011;6452;41.572;23.732;2023-07-13T10:12:58;4.35;;;3.95;;
12776;SDS011;6452;41.572;23.732;2023-07-13T10:15:24;4.20;;;4.00;;
12776;SDS011;6452;41.572;23.732;2023-07-13T10:17:51;4.30;;;3.90;;
12776;SDS011;6452;41.572;23.732;2023-07-13T10:20:18;4.10;;;3.90;;
12776;SDS011;6452;41.572;23.732;2023-07-13T10:22:44;4.50;;;4.20;;
12776;SDS011;6452;41.572;23.732;2023-07-13T10:25:19;4.47;;;4.18;;
12776;SDS011;6452;41.572;23.732;2023-07-13T10:27:45;5.10;;;4.53;;
12776;SDS011;6452;41.572;23.732;2023-07-13T10:30:12;4.40;;;4.00;;
12776;SDS011;6452;41.572;23.732;2023-07-13T10:32:39;6.70;;;4.38;;
12776;SDS011;6452;41.572;23.732;2023-07-13T10:35:05;4.45;;;4.15;;
12776;SDS011;6452;41.572;23.732;2023-07-13T10:37:45;4.38;;;3.97;;
12776;SDS011;6452;41.572;23.732;2023-07-13T10:40:25;4.28;;;4.00;;
12776;SDS011;6452;41.572;23.732;2023-07-13T10:42:52;5.00;;;4.50;;
12776;SDS011;6452;41.572;23.732;2023-07-13T10:45:21;4.38;;;4.07;;
12776;SDS011;6452;41.572;23.732;2023-07-13T10:47:48;4.60;;;4.20;;
12776;SDS011;6452;41.572;23.732;2023-07-13T10:50:24;4.25;;;3.95;;
12776;SDS011;6452;41.572;23.732;2023-07-13T10:52:52;4.45;;;4.15;;
12776;SDS011;6452;41.572;23.732;2023-07-13T11:03:22;4.65;;;4.30;;
12776;SDS011;6452;41.572;23.732;2023-07-13T11:05:49;4.05;;;3.75;;
12776;SDS011;6452;41.572;23.732;2023-07-13T11:08:19;4.13;;;3.83;;
12776;SDS011;6452;41.572;23.732;2023-07-13T11:10:53;4.60;;;4.28;;
12776;SDS011;6452;41.572;23.732;2023-07-13T11:16:26;3.97;;;3.67;;
12776;SDS011;6452;41.572;23.732;2023-07-13T11:21:29;4.07;;;3.78;;
12776;SDS011;6452;41.572;23.732;2023-07-13T11:31:58;4.82;;;3.78;;
12776;SDS011;6452;41.572;23.732;2023-07-13T11:34:31;3.65;;;3.45;;
12776;SDS011;6452;41.572;23.732;2023-07-13T11:36:58;4.10;;;3.80;;
12776;SDS011;6452;41.572;23.732;2023-07-13T11:39:28;3.72;;;3.53;;
12776;SDS011;6452;41.572;23.732;2023-07-13T11:41:57;3.97;;;3.63;;
12776;SDS011;6452;41.572;23.732;2023-07-13T11:44:24;4.65;;;3.90;;
12776;SDS011;6452;41.572;23.732;2023-07-13T11:46:52;4.43;;;3.55;;
12776;SDS011;6452;41.572;23.732;2023-07-13T11:49:19;3.65;;;3.42;;
12776;SDS011;6452;41.572;23.732;2023-07-13T11:51:45;3.50;;;3.20;;
12776;SDS011;6452;41.572;23.732;2023-07-13T11:54:15;3.50;;;3.30;;
12776;SDS011;6452;41.572;23.732;2023-07-13T11:56:42;3.33;;;3.08;;
12776;SDS011;6452;41.572;23.732;2023-07-13T11:59:10;3.40;;;3.20;;
12776;SDS011;6452;41.572;23.732;2023-07-13T12:01:41;3.47;;;3.17;;
12776;SDS011;6452;41.572;23.732;2023-07-13T12:04:08;3.33;;;3.13;;
12776;SDS011;6452;41.572;23.732;2023-07-13T12:06:44;3.38;;;3.15;;
12776;SDS011;6452;41.572;23.732;2023-07-13T12:09:11;3.28;;;2.97;;
12776;SDS011;6452;41.572;23.732;2023-07-13T12:11:45;3.72;;;3.38;;
12776;SDS011;6452;41.572;23.732;2023-07-13T12:14:13;3.05;;;2.85;;
12776;SDS011;6452;41.572;23.732;2023-07-13T12:16:40;2.88;;;2.78;;
12776;SDS011;6452;41.572;23.732;2023-07-13T12:19:26;3.20;;;3.00;;
12776;SDS011;6452;41.572;23.732;2023-07-13T12:21:54;3.78;;;3.47;;
12776;SDS011;6452;41.572;23.732;2023-07-13T12:24:21;2.90;;;2.70;;
12776;SDS011;6452;41.572;23.732;2023-07-13T12:29:49;3.13;;;2.92;;
12776;SDS011;6452;41.572;23.732;2023-07-13T12:32:17;2.90;;;2.80;;
12776;SDS011;6452;41.572;23.732;2023-07-13T12:34:53;4.07;;;2.95;;
12776;SDS011;6452;41.572;23.732;2023-07-13T12:37:19;3.42;;;2.97;;
12776;SDS011;6452;41.572;23.732;2023-07-13T12:39:47;3.08;;;2.78;;
12776;SDS011;6452;41.572;23.732;2023-07-13T12:42:29;2.95;;;2.83;;
12776;SDS011;6452;41.572;23.732;2023-07-13T12:47:26;2.90;;;2.70;;
12776;SDS011;6452;41.572;23.732;2023-07-13T12:49:56;3.10;;;2.90;;
12776;SDS011;6452;41.572;23.732;2023-07-13T12:52:23;2.85;;;2.65;;
12776;SDS011;6452;41.572;23.732;2023-07-13T12:54:55;2.70;;;2.60;;
12776;SDS011;6452;41.572;23.732;2023-07-13T12:57:24;3.08;;;2.83;;
12776;SDS011;6452;41.572;23.732;2023-07-13T12:59:52;3.33;;;3.03;;
12776;SDS011;6452;41.572;23.732;2023-07-13T13:02:39;2.70;;;2.60;;
12776;SDS011;6452;41.572;23.732;2023-07-13T13:05:05;3.90;;;2.90;;
12776;SDS011;6452;41.572;23.732;2023-07-13T13:07:31;3.05;;;2.85;;
12776;SDS011;6452;41.572;23.732;2023-07-13T13:09:58;3.03;;;2.70;;
12776;SDS011;6452;41.572;23.732;2023-07-13T13:12:24;2.63;;;2.53;;
12776;SDS011;6452;41.572;23.732;2023-07-13T13:14:51;2.70;;;2.60;;
12776;SDS011;6452;41.572;23.732;2023-07-13T13:17:23;3.08;;;2.60;;
12776;SDS011;6452;41.572;23.732;2023-07-13T13:19:50;3.00;;;2.90;;
12776;SDS011;6452;41.572;23.732;2023-07-13T13:22:23;3.05;;;2.85;;
12776;SDS011;6452;41.572;23.732;2023-07-13T13:24:49;3.05;;;2.85;;
12776;SDS011;6452;41.572;23.732;2023-07-13T13:27:22;2.88;;;2.67;;
12776;SDS011;6452;41.572;23.732;2023-07-13T13:29:49;2.90;;;2.70;;
12776;SDS011;6452;41.572;23.732;2023-07-13T13:32:17;3.30;;;3.10;;
12776;SDS011;6452;41.572;23.732;2023-07-13T13:34:44;3.25;;;2.90;;
12776;SDS011;6452;41.572;23.732;2023-07-13T13:37:18;3.65;;;3.35;;
12776;SDS011;6452;41.572;23.732;2023-07-13T13:39:44;3.28;;;3.08;;
12776;SDS011;6452;41.572;23.732;2023-07-13T13:42:10;3.47;;;3.28;;
12776;SDS011;6452;41.572;23.732;2023-07-13T13:44:36;3.25;;;2.95;;
12776;SDS011;6452;41.572;23.732;2023-07-13T13:47:03;4.72;;;2.70;;
12776;SDS011;6452;41.572;23.732;2023-07-13T13:49:29;3.47;;;3.17;;
12776;SDS011;6452;41.572;23.732;2023-07-13T13:51:55;4.10;;;2.97;;
12776;SDS011;6452;41.572;23.732;2023-07-13T13:54:22;3.20;;;2.95;;
12776;SDS011;6452;41.572;23.732;2023-07-13T13:56:49;3.00;;;2.80;;
12776;SDS011;6452;41.572;23.732;2023-07-13T13:59:16;3.25;;;3.05;;
12776;SDS011;6452;41.572;23.732;2023-07-13T14:01:42;2.75;;;2.60;;
12776;SDS011;6452;41.572;23.732;2023-07-13T14:04:08;3.17;;;2.85;;
12776;SDS011;6452;41.572;23.732;2023-07-13T14:06:39;3.10;;;2.90;;
12776;SDS011;6452;41.572;23.732;2023-07-13T14:09:09;3.08;;;2.88;;
12776;SDS011;6452;41.572;23.732;2023-07-13T14:11:36;4.03;;;2.95;;
12776;SDS011;6452;41.572;23.732;2023-07-13T14:14:02;2.80;;;2.60;;
12776;SDS011;6452;41.572;23.732;2023-07-13T14:16:30;3.05;;;2.85;;
12776;SDS011;6452;41.572;23.732;2023-07-13T14:18:57;3.17;;;2.97;;
12776;SDS011;6452;41.572;23.732;2023-07-13T14:21:25;2.97;;;2.78;;
12776;SDS011;6452;41.572;23.732;2023-07-13T14:23:51;2.97;;;2.88;;
12776;SDS011;6452;41.572;23.732;2023-07-13T14:26:18;4.32;;;2.78;;
12776;SDS011;6452;41.572;23.732;2023-07-13T14:28:46;3.10;;;2.80;;
12776;SDS011;6452;41.572;23.732;2023-07-13T14:31:12;3.28;;;2.97;;
12776;SDS011;6452;41.572;23.732;2023-07-13T14:33:38;5.05;;;3.15;;
12776;SDS011;6452;41.572;23.732;2023-07-13T14:38:49;2.72;;;2.63;;
12776;SDS011;6452;41.572;23.732;2023-07-13T14:41:15;4.55;;;2.75;;
12776;SDS011;6452;41.572;23.732;2023-07-13T14:43:40;2.75;;;2.65;;
12776;SDS011;6452;41.572;23.732;2023-07-13T14:46:07;3.00;;;2.80;;
12776;SDS011;6452;41.572;23.732;2023-07-13T14:48:42;3.33;;;3.05;;
12776;SDS011;6452;41.572;23.732;2023-07-13T14:51:09;3.35;;;2.60;;
12776;SDS011;6452;41.572;23.732;2023-07-13T14:53:35;3.03;;;2.83;;
12776;SDS011;6452;41.572;23.732;2023-07-13T14:56:09;3.00;;;2.80;;
12776;SDS011;6452;41.572;23.732;2023-07-13T14:58:35;3.10;;;2.90;;
12776;SDS011;6452;41.572;23.732;2023-07-13T15:01:01;3.17;;;2.95;;
12776;SDS011;6452;41.572;23.732;2023-07-13T15:03:27;3.88;;;2.97;;
12776;SDS011;6452;41.572;23.732;2023-07-13T15:05:53;3.28;;;2.92;;
12776;SDS011;6452;41.572;23.732;2023-07-13T15:08:19;2.92;;;2.72;;
12776;SDS011;6452;41.572;23.732;2023-07-13T15:10:44;3.28;;;2.97;;
12776;SDS011;6452;41.572;23.732;2023-07-13T15:13:18;3.00;;;2.70;;
12776;SDS011;6452;41.572;23.732;2023-07-13T15:15:48;2.72;;;2.30;;
12776;SDS011;6452;41.572;23.732;2023-07-13T15:18:15;2.50;;;2.40;;
12776;SDS011;6452;41.572;23.732;2023-07-13T15:20:42;2.83;;;2.55;;
12776;SDS011;6452;41.572;23.732;2023-07-13T15:23:13;2.72;;;2.55;;
12776;SDS011;6452;41.572;23.732;2023-07-13T15:25:40;3.97;;;3.10;;
12776;SDS011;6452;41.572;23.732;2023-07-13T15:28:06;3.00;;;2.38;;
12776;SDS011;6452;41.572;23.732;2023-07-13T15:30:35;2.92;;;2.72;;